sensor_id;sensor_type;location;lat;lon;timestamp;P1;durP1;ratioP1;P2;durP2;ratioP2
69334;SDS011;56477;52.742;15.242;2023-06-05T00:01:25;2.97;;;0.90;;
69334;SDS011;56477;52.742;15.242;2023-06-05T00:03:51;1.73;;;0.68;;
69334;SDS011;56477;52.742;15.242;2023-06-05T00:06:18;3.05;;;0.93;;
69334;SDS011;56477;52.742;15.242;2023-06-05T00:08:45;2.40;;;0.80;;
69334;SDS011;56477;52.742;15.242;2023-06-05T00:11:11;2.38;;;0.73;;
69334;SDS011;56477;52.742;15.242;2023-06-05T00:13:37;1.60;;;0.60;;
69334;SDS011;56477;52.742;15.242;2023-06-05T00:16:03;2.58;;;0.93;;
69334;SDS011;56477;52.742;15.242;2023-06-05T00:18:29;2.25;;;0.70;;
69334;SDS011;56477;52.742;15.242;2023-06-05T00:20:56;2.58;;;0.70;;
69334;SDS011;56477;52.742;15.242;2023-06-05T00:23:22;3.37;;;0.67;;
69334;SDS011;56477;52.742;15.242;2023-06-05T00:25:48;1.90;;;0.70;;
69334;SDS011;56477;52.742;15.242;2023-06-05T00:28:14;3.38;;;1.23;;
69334;SDS011;56477;52.742;15.242;2023-06-05T00:30:40;2.72;;;0.93;;
69334;SDS011;56477;52.742;15.242;2023-06-05T00:33:06;2.67;;;0.90;;
69334;SDS011;56477;52.742;15.242;2023-06-05T00:35:32;2.67;;;0.98;;
69334;SDS011;56477;52.742;15.242;2023-06-05T00:37:58;2.60;;;1.13;;
69334;SDS011;56477;52.742;15.242;2023-06-05T00:40:24;1.90;;;0.68;;
69334;SDS011;56477;52.742;15.242;2023-06-05T00:42:50;1.77;;;0.80;;
69334;SDS011;56477;52.742;15.242;2023-06-05T00:45:16;1.95;;;0.75;;
69334;SDS011;56477;52.742;15.242;2023-06-05T00:47:42;3.42;;;0.90;;
69334;SDS011;56477;52.742;15.242;2023-06-05T00:50:08;2.13;;;1.05;;
69334;SDS011;56477;52.742;15.242;2023-06-05T00:52:38;2.43;;;0.80;;
69334;SDS011;56477;52.742;15.242;2023-06-05T00:55:05;2.30;;;0.80;;
69334;SDS011;56477;52.742;15.242;2023-06-05T00:57:32;2.58;;;0.70;;
69334;SDS011;56477;52.742;15.242;2023-06-05T01:00:00;3.20;;;0.93;;
69334;SDS011;56477;52.742;15.242;2023-06-05T01:02:28;2.35;;;0.70;;
69334;SDS011;56477;52.742;15.242;2023-06-05T01:04:54;2.17;;;1.00;;
69334;SDS011;56477;52.742;15.242;2023-06-05T01:07:22;2.08;;;0.77;;
69334;SDS011;56477;52.742;15.242;2023-06-05T01:09:48;1.90;;;0.90;;
69334;SDS011;56477;52.742;15.242;2023-06-05T01:12:20;2.40;;;0.70;;
69334;SDS011;56477;52.742;15.242;2023-06-05T01:14:52;2.53;;;0.73;;
69334;SDS011;56477;52.742;15.242;2023-06-05T01:17:24;2.47;;;1.00;;
69334;SDS011;56477;52.742;15.242;2023-06-05T01:19:54;2.08;;;0.77;;
69334;SDS011;56477;52.742;15.242;2023-06-05T01:22:21;2.40;;;0.80;;
69334;SDS011;56477;52.742;15.242;2023-06-05T01:24:47;2.23;;;0.80;;
69334;SDS011;56477;52.742;15.242;2023-06-05T01:27:25;2.80;;;0.80;;
69334;SDS011;56477;52.742;15.242;2023-06-05T01:33:10;2.92;;;1.00;;
69334;SDS011;56477;52.742;15.242;2023-06-05T01:35:42;2.03;;;1.15;;
69334;SDS011;56477;52.742;15.242;2023-06-05T01:38:11;3.73;;;0.80;;
69334;SDS011;56477;52.742;15.242;2023-06-05T01:40:37;2.88;;;1.00;;
69334;SDS011;56477;52.742;15.242;2023-06-05T01:43:04;2.55;;;1.00;;
69334;SDS011;56477;52.742;15.242;2023-06-05T01:45:31;2.80;;;1.00;;
69334;SDS011;56477;52.742;15.242;2023-06-05T01:47:58;2.35;;;1.30;;
69334;SDS011;56477;52.742;15.242;2023-06-05T01:50:23;3.77;;;0.93;;
69334;SDS011;56477;52.742;15.242;2023-06-05T01:52:50;2.67;;;1.08;;
69334;SDS011;56477;52.742;15.242;2023-06-05T01:55:20;1.92;;;0.75;;
69334;SDS011;56477;52.742;15.242;2023-06-05T01:57:49;3.00;;;0.88;;
69334;SDS011;56477;52.742;15.242;2023-06-05T02:00:16;2.03;;;0.60;;
69334;SDS011;56477;52.742;15.242;2023-06-05T02:02:43;3.08;;;0.70;;
69334;SDS011;56477;52.742;15.242;2023-06-05T02:05:11;2.13;;;0.90;;
69334;SDS011;56477;52.742;15.242;2023-06-05T02:07:41;3.30;;;1.10;;
69334;SDS011;56477;52.742;15.242;2023-06-05T02:10:13;2.50;;;0.80;;
69334;SDS011;56477;52.742;15.242;2023-06-05T02:12:39;2.03;;;0.73;;
69334;SDS011;56477;52.742;15.242;2023-06-05T02:15:07;2.05;;;0.88;;
69334;SDS011;56477;52.742;15.242;2023-06-05T02:17:44;4.43;;;1.27;;
69334;SDS011;56477;52.742;15.242;2023-06-05T02:20:16;2.28;;;0.93;;
69334;SDS011;56477;52.742;15.242;2023-06-05T02:22:42;2.22;;;0.80;;
69334;SDS011;56477;52.742;15.242;2023-06-05T02:25:10;3.50;;;1.10;;
69334;SDS011;56477;52.742;15.242;2023-06-05T02:27:37;2.70;;;1.10;;
69334;SDS011;56477;52.742;15.242;2023-06-05T02:30:04;2.63;;;1.13;;
69334;SDS011;56477;52.742;15.242;2023-06-05T02:32:30;4.05;;;0.90;;
69334;SDS011;56477;52.742;15.242;2023-06-05T02:34:57;3.80;;;1.38;;
69334;SDS011;56477;52.742;15.242;2023-06-05T02:37:24;4.47;;;1.17;;
69334;SDS011;56477;52.742;15.242;2023-06-05T02:39:52;2.67;;;1.10;;
69334;SDS011;56477;52.742;15.242;2023-06-05T02:42:17;4.15;;;1.77;;
69334;SDS011;56477;52.742;15.242;2023-06-05T02:44:44;2.88;;;1.10;;
69334;SDS011;56477;52.742;15.242;2023-06-05T02:47:11;4.43;;;1.30;;
69334;SDS011;56477;52.742;15.242;2023-06-05T02:49:38;2.75;;;1.30;;
69334;SDS011;56477;52.742;15.242;2023-06-05T02:52:04;3.08;;;0.90;;
69334;SDS011;56477;52.742;15.242;2023-06-05T02:54:30;3.60;;;1.17;;
69334;SDS011;56477;52.742;15.242;2023-06-05T02:56:56;3.50;;;1.60;;
69334;SDS011;56477;52.742;15.242;2023-06-05T02:59:25;4.10;;;1.50;;
69334;SDS011;56477;52.742;15.242;2023-06-05T03:01:52;2.63;;;1.10;;
69334;SDS011;56477;52.742;15.242;2023-06-05T03:04:19;4.65;;;1.55;;
69334;SDS011;56477;52.742;15.242;2023-06-05T03:06:49;7.07;;;1.92;;
69334;SDS011;56477;52.742;15.242;2023-06-05T03:09:16;5.97;;;1.47;;
69334;SDS011;56477;52.742;15.242;2023-06-05T03:11:43;3.35;;;1.40;;
69334;SDS011;56477;52.742;15.242;2023-06-05T03:14:09;4.35;;;1.80;;
69334;SDS011;56477;52.742;15.242;2023-06-05T03:16:35;6.93;;;2.15;;
69334;SDS011;56477;52.742;15.242;2023-06-05T03:19:07;4.93;;;1.70;;
69334;SDS011;56477;52.742;15.242;2023-06-05T03:21:35;4.38;;;1.50;;
69334;SDS011;56477;52.742;15.242;2023-06-05T03:24:01;7.00;;;2.00;;
69334;SDS011;56477;52.742;15.242;2023-06-05T03:26:27;4.40;;;1.30;;
69334;SDS011;56477;52.742;15.242;2023-06-05T03:28:54;4.82;;;1.67;;
69334;SDS011;56477;52.742;15.242;2023-06-05T03:31:20;3.40;;;1.17;;
69334;SDS011;56477;52.742;15.242;2023-06-05T03:33:46;5.25;;;1.60;;
69334;SDS011;56477;52.742;15.242;2023-06-05T03:36:12;7.82;;;1.70;;
69334;SDS011;56477;52.742;15.242;2023-06-05T03:38:40;2.95;;;1.45;;
69334;SDS011;56477;52.742;15.242;2023-06-05T03:41:06;8.53;;;1.30;;
69334;SDS011;56477;52.742;15.242;2023-06-05T03:43:33;4.80;;;1.98;;
69334;SDS011;56477;52.742;15.242;2023-06-05T03:45:59;5.28;;;1.65;;
69334;SDS011;56477;52.742;15.242;2023-06-05T03:48:25;3.70;;;1.45;;
69334;SDS011;56477;52.742;15.242;2023-06-05T03:50:52;3.50;;;1.73;;
69334;SDS011;56477;52.742;15.242;2023-06-05T03:53:19;6.60;;;1.50;;
69334;SDS011;56477;52.742;15.242;2023-06-05T03:55:45;5.80;;;1.83;;
69334;SDS011;56477;52.742;15.242;2023-06-05T03:58:12;6.18;;;2.28;;
69334;SDS011;56477;52.742;15.242;2023-06-05T04:00:42;5.72;;;1.88;;
69334;SDS011;56477;52.742;15.242;2023-06-05T04:03:10;6.60;;;1.93;;
69334;SDS011;56477;52.742;15.242;2023-06-05T04:05:37;3.92;;;1.67;;
69334;SDS011;56477;52.742;15.242;2023-06-05T04:08:04;7.45;;;1.90;;
69334;SDS011;56477;52.742;15.242;2023-06-05T04:10:31;5.93;;;2.30;;
69334;SDS011;56477;52.742;15.242;2023-06-05T04:12:57;6.63;;;2.10;;
69334;SDS011;56477;52.742;15.242;2023-06-05T04:15:23;3.83;;;1.80;;
69334;SDS011;56477;52.742;15.242;2023-06-05T04:17:50;7.13;;;1.88;;
69334;SDS011;56477;52.742;15.242;2023-06-05T04:20:16;5.95;;;2.10;;
69334;SDS011;56477;52.742;15.242;2023-06-05T04:22:42;5.25;;;1.73;;
69334;SDS011;56477;52.742;15.242;2023-06-05T04:25:09;5.30;;;1.43;;
69334;SDS011;56477;52.742;15.242;2023-06-05T04:27:39;5.78;;;1.52;;
69334;SDS011;56477;52.742;15.242;2023-06-05T04:30:06;5.65;;;2.00;;
69334;SDS011;56477;52.742;15.242;2023-06-05T04:32:37;9.20;;;2.38;;
69334;SDS011;56477;52.742;15.242;2023-06-05T04:35:07;7.40;;;2.30;;
69334;SDS011;56477;52.742;15.242;2023-06-05T04:37:35;8.87;;;2.13;;
69334;SDS011;56477;52.742;15.242;2023-06-05T04:40:01;5.82;;;2.20;;
69334;SDS011;56477;52.742;15.242;2023-06-05T04:42:31;5.70;;;2.40;;
69334;SDS011;56477;52.742;15.242;2023-06-05T04:44:58;7.18;;;2.53;;
69334;SDS011;56477;52.742;15.242;2023-06-05T04:47:29;3.83;;;1.98;;
69334;SDS011;56477;52.742;15.242;2023-06-05T04:49:59;6.10;;;2.73;;
69334;SDS011;56477;52.742;15.242;2023-06-05T04:52:32;6.30;;;2.60;;
69334;SDS011;56477;52.742;15.242;2023-06-05T04:54:58;9.80;;;2.53;;
69334;SDS011;56477;52.742;15.242;2023-06-05T04:57:27;5.28;;;2.13;;
69334;SDS011;56477;52.742;15.242;2023-06-05T04:59:54;3.67;;;1.77;;
69334;SDS011;56477;52.742;15.242;2023-06-05T05:02:20;10.87;;;2.40;;
69334;SDS011;56477;52.742;15.242;2023-06-05T05:04:46;8.25;;;2.70;;
69334;SDS011;56477;52.742;15.242;2023-06-05T05:07:13;7.82;;;2.80;;
69334;SDS011;56477;52.742;15.242;2023-06-05T05:09:42;5.25;;;2.58;;
69334;SDS011;56477;52.742;15.242;2023-06-05T05:12:08;6.05;;;2.10;;
69334;SDS011;56477;52.742;15.242;2023-06-05T05:14:35;8.07;;;2.30;;
69334;SDS011;56477;52.742;15.242;2023-06-05T05:17:02;6.28;;;2.30;;
69334;SDS011;56477;52.742;15.242;2023-06-05T05:19:28;9.13;;;3.60;;
69334;SDS011;56477;52.742;15.242;2023-06-05T05:21:55;8.90;;;3.00;;
69334;SDS011;56477;52.742;15.242;2023-06-05T05:24:21;6.90;;;2.20;;
69334;SDS011;56477;52.742;15.242;2023-06-05T05:26:48;7.77;;;2.80;;
69334;SDS011;56477;52.742;15.242;2023-06-05T05:29:14;7.13;;;2.13;;
69334;SDS011;56477;52.742;15.242;2023-06-05T05:31:40;9.98;;;2.50;;
69334;SDS011;56477;52.742;15.242;2023-06-05T05:34:06;4.03;;;1.95;;
69334;SDS011;56477;52.742;15.242;2023-06-05T05:36:32;11.47;;;2.30;;
69334;SDS011;56477;52.742;15.242;2023-06-05T05:38:58;4.50;;;2.10;;
69334;SDS011;56477;52.742;15.242;2023-06-05T05:41:26;5.35;;;2.42;;
69334;SDS011;56477;52.742;15.242;2023-06-05T05:43:52;4.53;;;2.10;;
69334;SDS011;56477;52.742;15.242;2023-06-05T05:46:18;5.10;;;2.30;;
69334;SDS011;56477;52.742;15.242;2023-06-05T05:48:44;5.18;;;2.58;;
69334;SDS011;56477;52.742;15.242;2023-06-05T05:51:10;5.50;;;2.45;;
69334;SDS011;56477;52.742;15.242;2023-06-05T05:53:36;5.97;;;2.17;;
69334;SDS011;56477;52.742;15.242;2023-06-05T05:56:02;6.93;;;2.80;;
69334;SDS011;56477;52.742;15.242;2023-06-05T05:58:29;6.70;;;2.53;;
69334;SDS011;56477;52.742;15.242;2023-06-05T06:00:55;7.25;;;2.50;;
69334;SDS011;56477;52.742;15.242;2023-06-05T06:03:21;6.22;;;1.85;;
69334;SDS011;56477;52.742;15.242;2023-06-05T06:05:49;8.10;;;2.00;;
69334;SDS011;56477;52.742;15.242;2023-06-05T06:08:14;6.28;;;2.42;;
69334;SDS011;56477;52.742;15.242;2023-06-05T06:10:42;4.93;;;2.13;;
69334;SDS011;56477;52.742;15.242;2023-06-05T06:13:08;7.75;;;2.50;;
69334;SDS011;56477;52.742;15.242;2023-06-05T06:15:35;4.87;;;2.10;;
69334;SDS011;56477;52.742;15.242;2023-06-05T06:18:04;4.75;;;2.40;;
69334;SDS011;56477;52.742;15.242;2023-06-05T06:20:31;3.28;;;2.00;;
69334;SDS011;56477;52.742;15.242;2023-06-05T06:22:58;5.35;;;2.05;;
69334;SDS011;56477;52.742;15.242;2023-06-05T06:25:25;8.10;;;2.88;;
69334;SDS011;56477;52.742;15.242;2023-06-05T06:27:54;8.30;;;2.30;;
69334;SDS011;56477;52.742;15.242;2023-06-05T06:30:21;10.73;;;2.45;;
69334;SDS011;56477;52.742;15.242;2023-06-05T06:32:47;4.82;;;2.28;;
69334;SDS011;56477;52.742;15.242;2023-06-05T06:35:13;3.67;;;2.05;;
69334;SDS011;56477;52.742;15.242;2023-06-05T06:37:40;5.13;;;2.30;;
69334;SDS011;56477;52.742;15.242;2023-06-05T06:40:07;5.70;;;2.25;;
69334;SDS011;56477;52.742;15.242;2023-06-05T06:42:39;6.55;;;2.00;;
69334;SDS011;56477;52.742;15.242;2023-06-05T06:45:05;10.57;;;3.08;;
69334;SDS011;56477;52.742;15.242;2023-06-05T06:47:32;9.33;;;2.00;;
69334;SDS011;56477;52.742;15.242;2023-06-05T06:49:58;5.35;;;1.98;;
69334;SDS011;56477;52.742;15.242;2023-06-05T06:52:24;7.28;;;2.20;;
69334;SDS011;56477;52.742;15.242;2023-06-05T06:54:50;6.88;;;2.08;;
69334;SDS011;56477;52.742;15.242;2023-06-05T06:57:16;5.90;;;2.10;;
69334;SDS011;56477;52.742;15.242;2023-06-05T06:59:42;5.15;;;2.15;;
69334;SDS011;56477;52.742;15.242;2023-06-05T07:02:15;4.85;;;1.98;;
69334;SDS011;56477;52.742;15.242;2023-06-05T07:04:43;5.32;;;2.28;;
69334;SDS011;56477;52.742;15.242;2023-06-05T07:07:10;4.90;;;1.90;;
69334;SDS011;56477;52.742;15.242;2023-06-05T07:09:40;4.43;;;2.00;;
69334;SDS011;56477;52.742;15.242;2023-06-05T07:12:10;3.88;;;1.83;;
69334;SDS011;56477;52.742;15.242;2023-06-05T07:14:37;4.88;;;1.95;;
69334;SDS011;56477;52.742;15.242;2023-06-05T07:17:03;4.32;;;1.80;;
69334;SDS011;56477;52.742;15.242;2023-06-05T07:19:31;5.77;;;2.03;;
69334;SDS011;56477;52.742;15.242;2023-06-05T07:21:58;7.50;;;2.13;;
69334;SDS011;56477;52.742;15.242;2023-06-05T07:24:25;5.50;;;2.25;;
69334;SDS011;56477;52.742;15.242;2023-06-05T07:26:53;3.15;;;1.77;;
69334;SDS011;56477;52.742;15.242;2023-06-05T07:29:23;6.95;;;2.50;;
69334;SDS011;56477;52.742;15.242;2023-06-05T07:31:50;5.90;;;2.00;;
69334;SDS011;56477;52.742;15.242;2023-06-05T07:34:17;3.40;;;1.60;;
69334;SDS011;56477;52.742;15.242;2023-06-05T07:36:44;5.45;;;2.00;;
69334;SDS011;56477;52.742;15.242;2023-06-05T07:39:12;4.05;;;2.17;;
69334;SDS011;56477;52.742;15.242;2023-06-05T07:41:38;3.85;;;2.58;;
69334;SDS011;56477;52.742;15.242;2023-06-05T07:44:11;4.40;;;2.10;;
69334;SDS011;56477;52.742;15.242;2023-06-05T07:46:40;3.83;;;2.00;;
69334;SDS011;56477;52.742;15.242;2023-06-05T07:49:06;3.38;;;1.60;;
69334;SDS011;56477;52.742;15.242;2023-06-05T07:51:33;5.95;;;2.10;;
69334;SDS011;56477;52.742;15.242;2023-06-05T07:54:07;6.25;;;1.70;;
69334;SDS011;56477;52.742;15.242;2023-06-05T07:56:35;4.60;;;1.88;;
69334;SDS011;56477;52.742;15.242;2023-06-05T07:59:03;4.05;;;2.22;;
69334;SDS011;56477;52.742;15.242;2023-06-05T08:01:30;4.40;;;2.40;;
69334;SDS011;56477;52.742;15.242;2023-06-05T08:03:57;3.53;;;2.45;;
69334;SDS011;56477;52.742;15.242;2023-06-05T08:06:23;3.00;;;2.13;;
69334;SDS011;56477;52.742;15.242;2023-06-05T08:08:50;4.75;;;2.53;;
69334;SDS011;56477;52.742;15.242;2023-06-05T08:11:17;6.85;;;2.40;;
69334;SDS011;56477;52.742;15.242;2023-06-05T08:13:43;4.30;;;2.67;;
69334;SDS011;56477;52.742;15.242;2023-06-05T08:16:09;4.33;;;2.33;;
69334;SDS011;56477;52.742;15.242;2023-06-05T08:18:35;4.18;;;2.20;;
69334;SDS011;56477;52.742;15.242;2023-06-05T08:21:01;3.95;;;1.77;;
69334;SDS011;56477;52.742;15.242;2023-06-05T08:23:27;6.20;;;2.00;;
69334;SDS011;56477;52.742;15.242;2023-06-05T08:25:54;5.33;;;1.80;;
69334;SDS011;56477;52.742;15.242;2023-06-05T08:28:20;3.07;;;1.97;;
69334;SDS011;56477;52.742;15.242;2023-06-05T08:30:47;3.75;;;1.50;;
69334;SDS011;56477;52.742;15.242;2023-06-05T08:33:14;2.75;;;1.80;;
69334;SDS011;56477;52.742;15.242;2023-06-05T08:35:42;4.15;;;2.10;;
69334;SDS011;56477;52.742;15.242;2023-06-05T08:38:08;3.58;;;1.67;;
69334;SDS011;56477;52.742;15.242;2023-06-05T08:40:34;3.20;;;1.80;;
69334;SDS011;56477;52.742;15.242;2023-06-05T08:43:02;2.97;;;1.30;;
69334;SDS011;56477;52.742;15.242;2023-06-05T08:45:30;4.07;;;1.60;;
69334;SDS011;56477;52.742;15.242;2023-06-05T08:47:56;4.63;;;1.92;;
69334;SDS011;56477;52.742;15.242;2023-06-05T08:50:24;2.53;;;1.58;;
69334;SDS011;56477;52.742;15.242;2023-06-05T08:52:54;4.03;;;1.60;;
69334;SDS011;56477;52.742;15.242;2023-06-05T08:55:24;2.70;;;1.90;;
69334;SDS011;56477;52.742;15.242;2023-06-05T08:57:50;4.53;;;1.40;;
69334;SDS011;56477;52.742;15.242;2023-06-05T09:00:17;3.17;;;1.70;;
69334;SDS011;56477;52.742;15.242;2023-06-05T09:02:44;2.35;;;1.52;;
69334;SDS011;56477;52.742;15.242;2023-06-05T09:05:12;3.20;;;1.40;;
69334;SDS011;56477;52.742;15.242;2023-06-05T09:07:42;3.72;;;1.42;;
69334;SDS011;56477;52.742;15.242;2023-06-05T09:10:21;5.03;;;1.50;;
69334;SDS011;56477;52.742;15.242;2023-06-05T09:15:21;2.77;;;1.10;;
69334;SDS011;56477;52.742;15.242;2023-06-05T09:20:30;2.80;;;1.10;;
69334;SDS011;56477;52.742;15.242;2023-06-05T09:23:01;6.85;;;1.75;;
69334;SDS011;56477;52.742;15.242;2023-06-05T09:25:45;3.33;;;1.35;;
69334;SDS011;56477;52.742;15.242;2023-06-05T09:28:16;3.35;;;1.10;;
69334;SDS011;56477;52.742;15.242;2023-06-05T09:30:58;2.53;;;1.40;;
69334;SDS011;56477;52.742;15.242;2023-06-05T09:33:27;2.73;;;1.43;;
69334;SDS011;56477;52.742;15.242;2023-06-05T09:36:01;2.75;;;1.13;;
69334;SDS011;56477;52.742;15.242;2023-06-05T09:38:29;1.95;;;1.20;;
69334;SDS011;56477;52.742;15.242;2023-06-05T09:43:32;5.38;;;1.42;;
69334;SDS011;56477;52.742;15.242;2023-06-05T09:45:59;3.47;;;1.65;;
69334;SDS011;56477;52.742;15.242;2023-06-05T09:48:32;4.67;;;1.40;;
69334;SDS011;56477;52.742;15.242;2023-06-05T09:51:07;3.20;;;1.43;;
69334;SDS011;56477;52.742;15.242;2023-06-05T09:53:34;3.25;;;1.40;;
69334;SDS011;56477;52.742;15.242;2023-06-05T09:56:02;4.82;;;1.88;;
69334;SDS011;56477;52.742;15.242;2023-06-05T09:58:29;2.13;;;1.30;;
69334;SDS011;56477;52.742;15.242;2023-06-05T10:00:55;4.22;;;1.50;;
69334;SDS011;56477;52.742;15.242;2023-06-05T10:03:25;4.32;;;2.03;;
69334;SDS011;56477;52.742;15.242;2023-06-05T10:05:52;2.50;;;1.50;;
69334;SDS011;56477;52.742;15.242;2023-06-05T10:08:20;2.40;;;1.30;;
69334;SDS011;56477;52.742;15.242;2023-06-05T10:10:46;3.72;;;1.63;;
69334;SDS011;56477;52.742;15.242;2023-06-05T10:13:13;2.60;;;1.40;;
69334;SDS011;56477;52.742;15.242;2023-06-05T10:15:39;5.45;;;1.60;;
69334;SDS011;56477;52.742;15.242;2023-06-05T10:18:08;3.13;;;1.70;;
69334;SDS011;56477;52.742;15.242;2023-06-05T10:20:35;4.60;;;1.57;;
69334;SDS011;56477;52.742;15.242;2023-06-05T10:23:02;2.67;;;1.60;;
69334;SDS011;56477;52.742;15.242;2023-06-05T10:25:30;2.70;;;1.40;;
69334;SDS011;56477;52.742;15.242;2023-06-05T10:33:54;5.47;;;1.90;;
69334;SDS011;56477;52.742;15.242;2023-06-05T10:39:22;4.73;;;1.50;;
69334;SDS011;56477;52.742;15.242;2023-06-05T10:41:51;2.33;;;1.20;;
69334;SDS011;56477;52.742;15.242;2023-06-05T10:44:17;3.08;;;1.80;;
69334;SDS011;56477;52.742;15.242;2023-06-05T10:46:43;3.22;;;1.80;;
69334;SDS011;56477;52.742;15.242;2023-06-05T10:49:12;2.55;;;1.63;;
69334;SDS011;56477;52.742;15.242;2023-06-05T10:51:51;2.10;;;1.50;;
69334;SDS011;56477;52.742;15.242;2023-06-05T10:59:18;2.55;;;1.50;;
69334;SDS011;56477;52.742;15.242;2023-06-05T11:13:12;2.63;;;1.50;;
69334;SDS011;56477;52.742;15.242;2023-06-05T11:17:48;3.95;;;1.63;;
69334;SDS011;56477;52.742;15.242;2023-06-05T11:28:02;4.47;;;2.05;;
69334;SDS011;56477;52.742;15.242;2023-06-05T11:30:31;4.18;;;1.55;;
69334;SDS011;56477;52.742;15.242;2023-06-05T11:33:09;3.60;;;1.30;;
69334;SDS011;56477;52.742;15.242;2023-06-05T11:35:38;2.90;;;1.50;;
69334;SDS011;56477;52.742;15.242;2023-06-05T11:40:35;5.43;;;1.98;;
69334;SDS011;56477;52.742;15.242;2023-06-05T11:43:05;3.35;;;1.70;;
69334;SDS011;56477;52.742;15.242;2023-06-05T11:45:32;2.50;;;1.52;;
69334;SDS011;56477;52.742;15.242;2023-06-05T11:48:07;3.70;;;1.73;;
69334;SDS011;56477;52.742;15.242;2023-06-05T11:50:37;3.63;;;2.15;;
69334;SDS011;56477;52.742;15.242;2023-06-05T11:53:05;6.82;;;2.25;;
69334;SDS011;56477;52.742;15.242;2023-06-05T11:55:36;2.65;;;1.83;;
69334;SDS011;56477;52.742;15.242;2023-06-05T11:58:37;2.83;;;1.88;;
69334;SDS011;56477;52.742;15.242;2023-06-05T12:01:05;3.27;;;1.60;;
69334;SDS011;56477;52.742;15.242;2023-06-05T12:03:40;3.27;;;2.03;;
69334;SDS011;56477;52.742;15.242;2023-06-05T12:06:07;2.25;;;1.92;;
69334;SDS011;56477;52.742;15.242;2023-06-05T12:08:33;2.50;;;1.77;;
69334;SDS011;56477;52.742;15.242;2023-06-05T12:11:18;3.63;;;1.65;;
69334;SDS011;56477;52.742;15.242;2023-06-05T12:13:51;3.17;;;1.83;;
69334;SDS011;56477;52.742;15.242;2023-06-05T12:16:34;2.47;;;1.65;;
69334;SDS011;56477;52.742;15.242;2023-06-05T12:19:00;2.78;;;1.40;;
69334;SDS011;56477;52.742;15.242;2023-06-05T12:21:45;3.83;;;1.47;;
69334;SDS011;56477;52.742;15.242;2023-06-05T12:24:12;4.67;;;1.70;;
69334;SDS011;56477;52.742;15.242;2023-06-05T12:29:22;2.58;;;1.70;;
69334;SDS011;56477;52.742;15.242;2023-06-05T12:31:51;3.58;;;1.70;;
69334;SDS011;56477;52.742;15.242;2023-06-05T12:34:17;3.67;;;1.52;;
69334;SDS011;56477;52.742;15.242;2023-06-05T12:36:44;4.47;;;1.60;;
69334;SDS011;56477;52.742;15.242;2023-06-05T12:39:10;2.92;;;1.77;;
69334;SDS011;56477;52.742;15.242;2023-06-05T12:41:38;3.05;;;1.48;;
69334;SDS011;56477;52.742;15.242;2023-06-05T12:44:05;2.72;;;1.60;;
69334;SDS011;56477;52.742;15.242;2023-06-05T12:46:34;3.47;;;1.70;;
69334;SDS011;56477;52.742;15.242;2023-06-05T12:49:01;2.77;;;1.53;;
69334;SDS011;56477;52.742;15.242;2023-06-05T12:51:28;3.03;;;1.73;;
69334;SDS011;56477;52.742;15.242;2023-06-05T12:53:55;5.93;;;1.60;;
69334;SDS011;56477;52.742;15.242;2023-06-05T12:56:22;4.97;;;1.58;;
69334;SDS011;56477;52.742;15.242;2023-06-05T12:58:53;3.60;;;1.42;;
69334;SDS011;56477;52.742;15.242;2023-06-05T13:01:21;4.28;;;1.40;;
69334;SDS011;56477;52.742;15.242;2023-06-05T13:03:48;4.68;;;1.90;;
69334;SDS011;56477;52.742;15.242;2023-06-05T13:06:14;5.13;;;1.48;;
69334;SDS011;56477;52.742;15.242;2023-06-05T13:08:40;3.00;;;1.43;;
69334;SDS011;56477;52.742;15.242;2023-06-05T13:11:06;2.53;;;1.40;;
69334;SDS011;56477;52.742;15.242;2023-06-05T13:13:32;3.22;;;1.80;;
69334;SDS011;56477;52.742;15.242;2023-06-05T13:15:59;2.30;;;1.40;;
69334;SDS011;56477;52.742;15.242;2023-06-05T13:18:30;3.35;;;1.70;;
69334;SDS011;56477;52.742;15.242;2023-06-05T13:20:56;3.97;;;1.73;;
69334;SDS011;56477;52.742;15.242;2023-06-05T13:23:22;10.05;;;1.92;;
69334;SDS011;56477;52.742;15.242;2023-06-05T13:25:48;4.30;;;1.60;;
69334;SDS011;56477;52.742;15.242;2023-06-05T13:28:14;2.88;;;1.38;;
69334;SDS011;56477;52.742;15.242;2023-06-05T13:30:40;4.75;;;1.58;;
69334;SDS011;56477;52.742;15.242;2023-06-05T13:33:08;9.93;;;1.67;;
69334;SDS011;56477;52.742;15.242;2023-06-05T13:35:34;3.33;;;1.48;;
69334;SDS011;56477;52.742;15.242;2023-06-05T13:38:00;4.07;;;1.70;;
69334;SDS011;56477;52.742;15.242;2023-06-05T13:40:26;6.73;;;3.97;;
69334;SDS011;56477;52.742;15.242;2023-06-05T13:42:53;3.97;;;1.50;;
69334;SDS011;56477;52.742;15.242;2023-06-05T13:45:20;3.28;;;1.33;;
69334;SDS011;56477;52.742;15.242;2023-06-05T13:47:46;3.10;;;1.30;;
69334;SDS011;56477;52.742;15.242;2023-06-05T13:50:12;4.07;;;1.60;;
69334;SDS011;56477;52.742;15.242;2023-06-05T13:52:38;4.23;;;1.40;;
69334;SDS011;56477;52.742;15.242;2023-06-05T13:55:05;3.05;;;1.33;;
69334;SDS011;56477;52.742;15.242;2023-06-05T13:57:31;3.33;;;1.50;;
69334;SDS011;56477;52.742;15.242;2023-06-05T13:59:57;4.15;;;1.40;;
69334;SDS011;56477;52.742;15.242;2023-06-05T14:02:23;3.63;;;1.43;;
69334;SDS011;56477;52.742;15.242;2023-06-05T14:04:49;3.20;;;1.50;;
69334;SDS011;56477;52.742;15.242;2023-06-05T14:07:15;2.90;;;1.17;;
69334;SDS011;56477;52.742;15.242;2023-06-05T14:09:41;3.28;;;1.40;;
69334;SDS011;56477;52.742;15.242;2023-06-05T14:12:07;2.40;;;1.40;;
69334;SDS011;56477;52.742;15.242;2023-06-05T14:14:35;3.70;;;1.30;;
69334;SDS011;56477;52.742;15.242;2023-06-05T14:17:01;3.38;;;1.50;;
69334;SDS011;56477;52.742;15.242;2023-06-05T14:19:27;3.75;;;1.73;;
69334;SDS011;56477;52.742;15.242;2023-06-05T14:21:53;3.20;;;1.10;;
69334;SDS011;56477;52.742;15.242;2023-06-05T14:24:19;2.88;;;1.20;;
69334;SDS011;56477;52.742;15.242;2023-06-05T14:26:45;2.80;;;1.58;;
69334;SDS011;56477;52.742;15.242;2023-06-05T14:29:11;3.47;;;1.27;;
69334;SDS011;56477;52.742;15.242;2023-06-05T14:31:38;2.97;;;1.60;;
69334;SDS011;56477;52.742;15.242;2023-06-05T14:34:03;4.95;;;1.42;;
69334;SDS011;56477;52.742;15.242;2023-06-05T14:36:30;3.95;;;1.40;;
69334;SDS011;56477;52.742;15.242;2023-06-05T14:38:55;3.78;;;1.50;;
69334;SDS011;56477;52.742;15.242;2023-06-05T14:41:21;2.17;;;1.30;;
69334;SDS011;56477;52.742;15.242;2023-06-05T14:43:47;3.80;;;1.97;;
69334;SDS011;56477;52.742;15.242;2023-06-05T14:46:13;4.10;;;1.48;;
69334;SDS011;56477;52.742;15.242;2023-06-05T14:48:39;5.07;;;1.50;;
69334;SDS011;56477;52.742;15.242;2023-06-05T14:51:07;3.22;;;1.65;;
69334;SDS011;56477;52.742;15.242;2023-06-05T14:53:33;3.75;;;1.67;;
69334;SDS011;56477;52.742;15.242;2023-06-05T14:55:59;4.93;;;1.30;;
69334;SDS011;56477;52.742;15.242;2023-06-05T14:58:25;3.33;;;1.58;;
69334;SDS011;56477;52.742;15.242;2023-06-05T15:00:51;4.15;;;1.63;;
69334;SDS011;56477;52.742;15.242;2023-06-05T15:03:17;2.25;;;1.40;;
69334;SDS011;56477;52.742;15.242;2023-06-05T15:05:43;2.83;;;1.23;;
69334;SDS011;56477;52.742;15.242;2023-06-05T15:08:09;2.30;;;1.20;;
69334;SDS011;56477;52.742;15.242;2023-06-05T15:10:36;2.85;;;1.80;;
69334;SDS011;56477;52.742;15.242;2023-06-05T15:13:02;4.78;;;1.83;;
69334;SDS011;56477;52.742;15.242;2023-06-05T15:15:29;3.53;;;1.83;;
69334;SDS011;56477;52.742;15.242;2023-06-05T15:17:54;5.23;;;1.57;;
69334;SDS011;56477;52.742;15.242;2023-06-05T15:20:21;2.97;;;1.40;;
69334;SDS011;56477;52.742;15.242;2023-06-05T15:22:48;2.83;;;1.50;;
69334;SDS011;56477;52.742;15.242;2023-06-05T15:25:14;2.92;;;1.50;;
69334;SDS011;56477;52.742;15.242;2023-06-05T15:27:40;3.67;;;1.35;;